createdAt,value
2022-10-10T00:01:37.281Z,66.44
2022-10-10T00:04:06.787Z,66.85
2022-10-10T00:06:35.260Z,66.38
2022-10-10T00:09:04.472Z,66.57
2022-10-10T00:11:32.993Z,66.46
2022-10-10T00:14:01.191Z,66.37
2022-10-10T00:16:29.289Z,65.96
2022-10-10T00:18:58.783Z,65.98
2022-10-10T00:21:26.802Z,66.24
2022-10-10T00:23:54.886Z,66.28
2022-10-10T00:26:22.980Z,66.22
2022-10-10T00:28:51.200Z,65.91
2022-10-10T00:31:19.440Z,66.20
2022-10-10T00:33:48.092Z,66.06
2022-10-10T00:36:20.371Z,66.11
2022-10-10T00:38:49.319Z,65.91
2022-10-10T00:41:17.524Z,66.03
2022-10-10T00:44:07.790Z,65.95
2022-10-10T00:46:36.110Z,66.19
2022-10-10T00:49:07.471Z,66.07
2022-10-10T00:51:37.915Z,66.11
2022-10-10T00:54:10.533Z,66.28
2022-10-10T00:56:44.998Z,66.54
2022-10-10T00:59:13.473Z,66.42
2022-10-10T01:01:43.077Z,66.43
2022-10-10T01:04:31.799Z,66.24
2022-10-10T01:07:02.641Z,66.47
2022-10-10T01:09:32.027Z,66.34
2022-10-10T01:12:16.480Z,66.35
2022-10-10T01:14:55.962Z,66.32
2022-10-10T01:17:31.346Z,66.43
2022-10-10T01:20:42.871Z,66.03
2022-10-10T01:23:50.931Z,66.33
2022-10-10T01:26:55.939Z,66.26
2022-10-10T01:29:31.058Z,66.50
2022-10-10T01:32:08.901Z,66.33
2022-10-10T01:34:49.037Z,66.45
2022-10-10T01:37:21.611Z,66.28
2022-10-10T01:39:58.803Z,66.35
2022-10-10T01:42:32.960Z,66.65
2022-10-10T01:45:02.406Z,66.81
2022-10-10T01:47:30.492Z,66.56
2022-10-10T01:50:06.078Z,66.60
2022-10-10T01:52:45.273Z,66.44
2022-10-10T01:55:42.353Z,66.52
2022-10-10T01:58:29.169Z,66.61
2022-10-10T02:01:09.060Z,66.52
2022-10-10T02:03:41.427Z,66.74
2022-10-10T02:06:18.423Z,66.79
2022-10-10T02:08:53.186Z,66.69
2022-10-10T02:11:21.852Z,66.83
2022-10-10T02:13:53.651Z,66.76
2022-10-10T02:16:28.489Z,66.59
2022-10-10T02:18:59.723Z,67.11
2022-10-10T02:21:28.785Z,66.93
2022-10-10T02:24:02.292Z,66.65
2022-10-10T02:26:33.116Z,66.95
2022-10-10T02:29:08.451Z,66.82
2022-10-10T02:31:44.885Z,66.66
2022-10-10T02:34:18.693Z,66.94
2022-10-10T02:36:51.912Z,66.76
2022-10-10T02:39:27.069Z,66.99
2022-10-10T02:41:55.122Z,66.99
2022-10-10T02:44:25.265Z,66.84
2022-10-10T02:46:54.735Z,67.09
2022-10-10T02:49:29.266Z,66.93
2022-10-10T02:51:57.579Z,67.12
2022-10-10T02:54:27.469Z,66.99
2022-10-10T02:56:55.772Z,67.01
2022-10-10T02:59:23.817Z,67.03
2022-10-10T03:01:52.270Z,67.05
2022-10-10T03:04:21.651Z,67.42
2022-10-10T03:06:49.706Z,67.53
2022-10-10T03:09:17.854Z,67.51
2022-10-10T03:11:45.947Z,67.37
2022-10-10T03:14:13.950Z,67.26
2022-10-10T03:16:41.947Z,67.64
2022-10-10T03:19:10.029Z,67.41
2022-10-10T03:21:39.461Z,67.20
2022-10-10T03:24:08.120Z,67.31
2022-10-10T03:26:36.179Z,67.37
2022-10-10T03:29:05.179Z,67.46
2022-10-10T03:31:33.635Z,67.49
2022-10-10T03:34:03.184Z,67.35
2022-10-10T03:36:31.723Z,67.53
2022-10-10T03:39:01.274Z,67.55
2022-10-10T03:41:29.889Z,67.25
2022-10-10T03:43:58.043Z,67.51
2022-10-10T03:46:26.210Z,67.71
2022-10-10T03:48:55.854Z,67.74
2022-10-10T03:51:23.991Z,67.52
2022-10-10T03:53:52.122Z,67.63
2022-10-10T03:56:21.491Z,67.56
2022-10-10T03:58:49.543Z,67.54
2022-10-10T04:01:17.781Z,67.67
2022-10-10T04:03:51.291Z,67.70
2022-10-10T04:06:20.208Z,67.62
2022-10-10T04:08:48.678Z,67.48
2022-10-10T04:11:16.697Z,67.63
2022-10-10T04:13:46.099Z,67.43
2022-10-10T04:16:14.180Z,67.37
2022-10-10T04:18:42.350Z,67.32
2022-10-10T04:21:12.310Z,67.30
2022-10-10T04:23:41.474Z,67.25
2022-10-10T04:26:10.022Z,67.41
2022-10-10T04:28:38.182Z,67.31
2022-10-10T04:31:08.115Z,67.21
2022-10-10T04:33:37.501Z,67.02
2022-10-10T04:36:06.157Z,67.04
2022-10-10T04:38:34.239Z,66.85
2022-10-10T04:41:02.721Z,66.52
2022-10-10T04:43:30.911Z,66.64
2022-10-10T04:45:59.503Z,66.77
2022-10-10T04:48:29.217Z,66.87
2022-10-10T04:50:59.935Z,67.06
2022-10-10T04:53:28.488Z,67.37
2022-10-10T04:55:56.532Z,67.61
2022-10-10T04:58:24.578Z,67.55
2022-10-10T05:00:56.661Z,67.40
2022-10-10T05:03:25.859Z,67.31
2022-10-10T05:05:55.257Z,67.67
2022-10-10T05:08:23.280Z,67.97
2022-10-10T05:10:54.349Z,67.89
2022-10-10T05:13:22.541Z,67.82
2022-10-10T05:15:53.114Z,68.08
2022-10-10T05:18:21.948Z,67.84
2022-10-10T05:20:49.990Z,67.92
2022-10-10T05:23:19.357Z,67.91
2022-10-10T05:25:50.605Z,67.60
2022-10-10T05:28:19.126Z,67.76
2022-10-10T05:30:47.246Z,67.59
2022-10-10T05:33:15.269Z,67.78
2022-10-10T05:35:43.381Z,68.11
2022-10-10T05:38:11.485Z,68.49
2022-10-10T05:40:42.545Z,68.32
2022-10-10T05:43:10.985Z,68.26
2022-10-10T05:45:39.197Z,68.35
2022-10-10T05:48:07.205Z,68.60
2022-10-10T05:50:40.479Z,69.24
2022-10-10T05:53:08.560Z,68.35
2022-10-10T05:55:36.693Z,68.22
2022-10-10T05:58:06.585Z,69.14
2022-10-10T06:00:36.472Z,68.63
2022-10-10T06:03:05.148Z,68.46
2022-10-10T06:05:33.375Z,68.69
2022-10-10T06:08:09.388Z,68.56
2022-10-10T06:10:42.402Z,68.88
2022-10-10T06:13:20.334Z,68.91
2022-10-10T06:15:52.983Z,69.08
2022-10-10T06:18:21.062Z,68.83
2022-10-10T06:20:49.095Z,68.89
2022-10-10T06:23:18.131Z,68.16
2022-10-10T06:25:46.214Z,68.56
2022-10-10T06:28:15.549Z,68.51
2022-10-10T06:30:45.029Z,68.69
2022-10-10T06:33:15.042Z,68.65
2022-10-10T06:35:44.369Z,68.66
2022-10-10T06:38:13.877Z,68.81
2022-10-10T06:40:42.595Z,68.36
2022-10-10T06:43:12.524Z,68.65
2022-10-10T06:45:45.021Z,68.30
2022-10-10T06:48:15.471Z,68.34
2022-10-10T06:50:44.027Z,68.52
2022-10-10T06:53:12.078Z,68.52
2022-10-10T06:55:46.422Z,68.39
2022-10-10T06:58:14.961Z,68.52
2022-10-10T07:00:51.193Z,68.21
2022-10-10T07:03:19.918Z,68.03
2022-10-10T07:05:52.046Z,68.10
2022-10-10T07:08:20.284Z,68.32
2022-10-10T07:10:48.662Z,68.40
2022-10-10T07:13:17.341Z,68.62
2022-10-10T07:15:46.735Z,68.46
2022-10-10T07:18:15.167Z,68.54
2022-10-10T07:20:43.268Z,68.19
2022-10-10T07:23:11.480Z,68.38
2022-10-10T07:25:42.780Z,68.70
2022-10-10T07:28:11.781Z,68.59
2022-10-10T07:30:43.334Z,68.57
2022-10-10T07:33:14.007Z,68.81
2022-10-10T07:35:42.696Z,68.63
2022-10-10T07:38:12.806Z,68.26
2022-10-10T07:40:41.537Z,68.87
2022-10-10T07:43:09.588Z,68.15
2022-10-10T07:45:37.651Z,67.38
2022-10-10T07:48:06.452Z,67.51
2022-10-10T07:50:35.959Z,67.39
2022-10-10T07:53:04.026Z,67.05
2022-10-10T07:55:32.073Z,67.37
2022-10-10T07:58:02.932Z,67.71
2022-10-10T08:00:31.306Z,67.23
2022-10-10T08:02:59.279Z,67.62
2022-10-10T08:05:27.434Z,68.00
2022-10-10T08:07:56.845Z,67.91
2022-10-10T08:10:24.946Z,68.10
2022-10-10T08:12:52.974Z,67.87
2022-10-10T08:15:21.283Z,67.95
2022-10-10T08:17:49.586Z,67.78
2022-10-10T08:20:18.070Z,67.32
2022-10-10T08:22:46.134Z,67.87
2022-10-10T08:25:15.944Z,68.69
2022-10-10T08:27:44.121Z,67.19
2022-10-10T08:30:13.429Z,67.54
2022-10-10T08:32:41.429Z,67.08
2022-10-10T08:35:09.954Z,67.02
2022-10-10T08:37:38.002Z,66.97
2022-10-10T08:40:08.021Z,67.10
2022-10-10T08:42:48.918Z,66.60
2022-10-10T08:45:24.700Z,66.83
2022-10-10T08:47:58.002Z,67.09
2022-10-10T08:50:31.754Z,67.38
2022-10-10T08:53:06.565Z,67.41
2022-10-10T08:55:37.955Z,66.67
2022-10-10T08:58:17.502Z,66.80
2022-10-10T09:00:49.478Z,65.96
2022-10-10T09:03:28.184Z,65.13
2022-10-10T09:06:11.591Z,64.38
2022-10-10T09:08:51.846Z,64.78
2022-10-10T09:11:41.114Z,64.66
2022-10-10T09:14:24.551Z,65.20
2022-10-10T09:17:00.155Z,66.17
2022-10-10T09:19:42.003Z,67.03
2022-10-10T09:22:17.046Z,67.12
2022-10-10T09:24:51.237Z,66.56
2022-10-10T09:27:25.814Z,65.45
2022-10-10T09:30:03.075Z,65.33
2022-10-10T09:32:38.651Z,64.33
2022-10-10T09:35:17.550Z,64.04
2022-10-10T09:37:49.833Z,64.10
2022-10-10T09:40:26.486Z,63.66
2022-10-10T09:42:56.554Z,64.05
2022-10-10T09:45:32.901Z,64.06
2022-10-10T09:48:00.934Z,63.84
2022-10-10T09:50:29.138Z,63.84
2022-10-10T09:52:59.201Z,64.38
2022-10-10T09:55:31.798Z,63.67
2022-10-10T09:58:10.909Z,62.74
2022-10-10T10:00:40.427Z,63.11
2022-10-10T10:03:15.021Z,62.89
2022-10-10T10:05:47.565Z,62.87
2022-10-10T10:08:26.917Z,63.37
2022-10-10T10:10:58.464Z,63.26
2022-10-10T10:13:31.423Z,62.95
2022-10-10T10:16:19.397Z,62.74
2022-10-10T10:18:48.860Z,63.19
2022-10-10T10:21:22.266Z,62.58
2022-10-10T10:23:57.691Z,62.97
2022-10-10T10:26:31.871Z,62.77
2022-10-10T10:29:00.092Z,62.80
2022-10-10T10:31:53.489Z,62.11
2022-10-10T10:34:43.207Z,61.95
2022-10-10T10:37:21.804Z,62.27
2022-10-10T10:40:20.157Z,62.68
2022-10-10T10:43:33.939Z,61.55
2022-10-10T10:46:13.346Z,61.85
2022-10-10T10:48:46.819Z,61.28
2022-10-10T10:51:43.928Z,61.24
2022-10-10T10:54:30.398Z,61.29
2022-10-10T10:57:11.160Z,61.81
2022-10-10T11:00:25.706Z,59.79
2022-10-10T11:03:35.102Z,60.26
2022-10-10T11:06:11.910Z,60.16
2022-10-10T11:08:58.579Z,61.06
2022-10-10T11:11:45.491Z,58.30
2022-10-10T11:14:36.693Z,57.69
2022-10-10T11:17:14.339Z,57.50
2022-10-10T11:19:56.459Z,58.79
2022-10-10T11:22:31.517Z,59.03
2022-10-10T11:25:06.435Z,57.53
2022-10-10T11:27:42.649Z,56.55
2022-10-10T11:30:18.069Z,55.89
2022-10-10T11:32:55.303Z,56.65
2022-10-10T11:35:35.770Z,56.58
2022-10-10T11:38:16.717Z,55.91
2022-10-10T11:40:53.971Z,54.53
2022-10-10T11:43:37.557Z,53.95
2022-10-10T11:46:17.415Z,54.28
2022-10-10T11:48:54.226Z,54.84
2022-10-10T11:51:38.167Z,55.17
2022-10-10T11:54:18.554Z,55.08
2022-10-10T11:56:47.651Z,55.21
2022-10-10T11:59:24.998Z,54.74
2022-10-10T12:04:36.892Z,55.74
2022-10-10T12:07:12.642Z,53.96
2022-10-10T12:09:46.150Z,54.03
2022-10-10T12:12:19.444Z,53.18
2022-10-10T12:14:54.154Z,52.46
2022-10-10T12:17:29.665Z,53.44
2022-10-10T12:20:08.779Z,53.86
2022-10-10T12:22:36.933Z,55.41
2022-10-10T12:25:25.767Z,54.78
2022-10-10T12:28:23.393Z,55.88
2022-10-10T12:31:34.070Z,55.07
2022-10-10T12:34:16.030Z,55.73
2022-10-10T12:37:20.277Z,55.75
2022-10-10T12:40:21.317Z,56.02
2022-10-10T12:43:22.621Z,55.65
2022-10-10T12:46:21.618Z,56.63
2022-10-10T12:49:07.698Z,54.55
2022-10-10T12:51:37.574Z,54.34
2022-10-10T12:54:08.374Z,55.37
2022-10-10T12:56:42.093Z,55.68
2022-10-10T12:59:25.164Z,54.41
2022-10-10T13:01:57.599Z,54.72
2022-10-10T13:04:28.371Z,54.09
2022-10-10T13:06:59.871Z,55.19
2022-10-10T13:09:35.840Z,55.66
2022-10-10T13:12:07.978Z,56.75
2022-10-10T13:14:41.554Z,55.90
2022-10-10T13:17:27.490Z,55.40
2022-10-10T13:19:57.764Z,55.66
2022-10-10T13:22:27.113Z,55.75
2022-10-10T13:24:56.945Z,55.62
2022-10-10T13:27:31.082Z,55.09
2022-10-10T13:29:59.767Z,54.09
2022-10-10T13:32:30.397Z,54.46
2022-10-10T13:35:02.107Z,54.43
2022-10-10T13:37:31.420Z,54.22
2022-10-10T13:39:59.893Z,54.46
2022-10-10T13:42:36.328Z,54.62
2022-10-10T13:45:30.888Z,53.65
2022-10-10T13:48:26.186Z,54.03
2022-10-10T13:51:05.068Z,54.03
2022-10-10T13:53:55.167Z,54.05
2022-10-10T13:56:28.696Z,53.92
2022-10-10T13:59:07.669Z,54.34
2022-10-10T14:01:40.159Z,54.49
2022-10-10T14:04:24.582Z,54.08
2022-10-10T14:07:01.885Z,54.05
2022-10-10T14:09:34.555Z,54.48
2022-10-10T14:12:06.313Z,54.06
2022-10-10T14:14:44.119Z,53.99
2022-10-10T14:17:13.414Z,54.26
2022-10-10T14:19:42.095Z,54.17
2022-10-10T14:22:10.160Z,54.79
2022-10-10T14:24:38.511Z,55.32
2022-10-10T14:27:26.748Z,55.33
2022-10-10T14:29:58.570Z,55.07
2022-10-10T14:32:27.015Z,55.12
2022-10-10T14:34:55.153Z,55.36
2022-10-10T14:37:27.912Z,55.31
2022-10-10T14:39:56.882Z,55.35
2022-10-10T14:42:26.201Z,56.15
2022-10-10T14:44:55.632Z,55.71
2022-10-10T14:47:26.040Z,55.67
2022-10-10T14:49:56.545Z,55.97
2022-10-10T14:52:24.734Z,55.66
2022-10-10T14:54:52.861Z,55.83
2022-10-10T14:57:22.311Z,56.01
2022-10-10T14:59:50.486Z,55.77
2022-10-10T15:02:24.045Z,55.26
2022-10-10T15:04:52.371Z,55.64
2022-10-10T15:07:21.341Z,55.10
2022-10-10T15:10:27.576Z,55.10
2022-10-10T15:12:42.387Z,54.66
2022-10-10T15:15:12.726Z,54.90
2022-10-10T15:17:42.621Z,54.68
2022-10-10T15:20:13.430Z,54.14
2022-10-10T15:22:42.294Z,54.38
2022-10-10T15:25:11.213Z,54.62
2022-10-10T15:27:39.760Z,54.71
2022-10-10T15:30:09.810Z,54.43
2022-10-10T15:32:42.970Z,54.21
2022-10-10T15:35:16.486Z,54.24
2022-10-10T15:37:45.688Z,54.74
2022-10-10T15:40:16.403Z,55.30
2022-10-10T15:42:44.824Z,54.76
2022-10-10T15:45:12.893Z,54.95
2022-10-10T15:47:46.615Z,55.07
2022-10-10T15:50:15.084Z,54.74
2022-10-10T15:52:43.178Z,54.46
2022-10-10T15:55:11.581Z,54.31
2022-10-10T15:57:39.655Z,54.58
2022-10-10T16:00:10.636Z,54.47
2022-10-10T16:02:42.935Z,55.11
2022-10-10T16:05:15.863Z,55.70
2022-10-10T16:07:48.084Z,55.88
2022-10-10T16:10:21.356Z,55.84
2022-10-10T16:12:50.472Z,55.76
2022-10-10T16:15:18.715Z,55.47
2022-10-10T16:17:48.208Z,55.66
2022-10-10T16:20:16.451Z,56.16
2022-10-10T16:22:44.499Z,57.02
2022-10-10T16:25:28.088Z,57.90
2022-10-10T16:27:56.258Z,58.53
2022-10-10T16:30:24.477Z,58.48
2022-10-10T16:32:53.955Z,58.74
2022-10-10T16:35:22.187Z,58.60
2022-10-10T16:37:50.217Z,58.55
2022-10-10T16:40:18.597Z,59.15
2022-10-10T16:42:46.714Z,59.28
2022-10-10T16:45:14.760Z,59.42
2022-10-10T16:47:42.802Z,59.70
2022-10-10T16:50:12.917Z,59.63
2022-10-10T16:52:41.571Z,59.94
2022-10-10T16:55:11.245Z,60.09
2022-10-10T16:57:40.051Z,60.11
2022-10-10T17:00:10.414Z,60.53
2022-10-10T17:02:42.021Z,60.81
2022-10-10T17:05:11.836Z,61.06
2022-10-10T17:07:39.868Z,61.63
2022-10-10T17:10:09.215Z,61.95
2022-10-10T17:12:37.302Z,62.34
2022-10-10T17:15:06.729Z,62.72
2022-10-10T17:17:35.788Z,62.76
2022-10-10T17:20:06.556Z,62.77
2022-10-10T17:22:36.922Z,63.33
2022-10-10T17:25:06.187Z,63.84
2022-10-10T17:27:35.023Z,64.25
2022-10-10T17:30:03.441Z,64.47
2022-10-10T17:32:31.819Z,64.71
2022-10-10T17:34:59.905Z,64.79
2022-10-10T17:37:28.321Z,64.65
2022-10-10T17:39:57.723Z,64.83
2022-10-10T17:42:25.792Z,64.93
2022-10-10T17:44:56.740Z,65.03
2022-10-10T17:47:24.789Z,64.94
2022-10-10T17:49:53.114Z,65.07
2022-10-10T17:52:22.140Z,65.13
2022-10-10T17:54:50.365Z,65.80
2022-10-10T17:57:20.210Z,65.09
2022-10-10T17:59:48.256Z,66.14
2022-10-10T18:02:18.817Z,66.22
2022-10-10T18:04:46.989Z,66.15
2022-10-10T18:07:15.816Z,65.68
2022-10-10T18:09:44.080Z,65.60
2022-10-10T18:12:12.361Z,65.38
2022-10-10T18:14:41.727Z,65.78
2022-10-10T18:17:10.210Z,67.06
2022-10-10T18:19:38.300Z,67.31
2022-10-10T18:22:07.062Z,67.60
2022-10-10T18:24:35.221Z,68.35
2022-10-10T18:27:03.487Z,69.16
2022-10-10T18:29:31.587Z,69.03
2022-10-10T18:32:00.971Z,68.94
2022-10-10T18:34:29.147Z,68.72
2022-10-10T18:36:57.201Z,68.88
2022-10-10T18:39:29.423Z,69.24
2022-10-10T18:42:00.452Z,70.32
2022-10-10T18:44:28.768Z,70.62
2022-10-10T18:46:58.252Z,70.28
2022-10-10T18:49:28.231Z,69.96
2022-10-10T18:51:56.541Z,70.22
2022-10-10T18:54:27.129Z,70.06
2022-10-10T18:56:55.146Z,69.97
2022-10-10T18:59:23.479Z,69.74
2022-10-10T19:01:52.425Z,70.13
2022-10-10T19:04:21.559Z,70.17
2022-10-10T19:06:57.116Z,70.05
2022-10-10T19:09:26.759Z,70.72
2022-10-10T19:11:55.398Z,70.64
2022-10-10T19:14:23.516Z,70.98
2022-10-10T19:16:51.833Z,70.86
2022-10-10T19:19:21.136Z,70.46
2022-10-10T19:21:51.332Z,70.48
2022-10-10T19:24:21.271Z,70.86
2022-10-10T19:26:55.794Z,71.53
2022-10-10T19:29:25.322Z,71.78
2022-10-10T19:31:53.611Z,71.88
2022-10-10T19:34:21.694Z,72.22
2022-10-10T19:36:51.117Z,72.47
2022-10-10T19:39:19.485Z,73.81
2022-10-10T19:41:48.032Z,74.11
2022-10-10T19:44:18.457Z,74.15
2022-10-10T19:46:46.492Z,74.30
2022-10-10T19:49:14.765Z,74.51
2022-10-10T19:51:42.769Z,74.02
2022-10-10T19:54:12.379Z,73.79
2022-10-10T19:56:40.381Z,74.86
2022-10-10T19:59:08.908Z,75.32
2022-10-10T20:01:37.424Z,75.27
2022-10-10T20:04:05.807Z,75.50
2022-10-10T20:06:34.005Z,75.20
2022-10-10T20:09:02.225Z,74.96
2022-10-10T20:11:32.582Z,75.11
2022-10-10T20:14:01.787Z,75.10
2022-10-10T20:16:29.961Z,74.87
2022-10-10T20:18:59.931Z,74.90
2022-10-10T20:21:31.531Z,75.29
2022-10-10T20:24:00.711Z,75.28
2022-10-10T20:26:28.971Z,75.22
2022-10-10T20:28:59.571Z,75.22
2022-10-10T20:31:30.986Z,75.02
2022-10-10T20:34:01.668Z,75.26
2022-10-10T20:36:31.962Z,74.76
2022-10-10T20:39:04.719Z,74.75
2022-10-10T20:41:35.967Z,74.81
2022-10-10T20:44:07.686Z,75.62
2022-10-10T20:46:38.343Z,75.36
2022-10-10T20:49:09.463Z,75.78
2022-10-10T20:51:37.561Z,75.58
2022-10-10T20:54:07.145Z,75.20
2022-10-10T20:56:36.663Z,75.20
2022-10-10T20:59:07.237Z,75.07
2022-10-10T21:01:35.835Z,75.40
2022-10-10T21:04:05.032Z,75.36
2022-10-10T21:06:35.397Z,75.23
2022-10-10T21:09:08.635Z,76.07
2022-10-10T21:11:38.962Z,76.15
2022-10-10T21:14:08.810Z,75.67
2022-10-10T21:16:39.741Z,75.39
2022-10-10T21:19:11.011Z,76.21
2022-10-10T21:21:40.408Z,76.51
2022-10-10T21:24:12.021Z,76.35
2022-10-10T21:26:41.758Z,76.15
2022-10-10T21:29:11.170Z,75.85
2022-10-10T21:31:40.739Z,75.79
2022-10-10T21:34:13.223Z,75.86
2022-10-10T21:36:41.686Z,75.67
2022-10-10T21:39:10.042Z,76.45
2022-10-10T21:41:38.421Z,76.22
2022-10-10T21:44:07.063Z,75.90
2022-10-10T21:46:38.030Z,75.72
2022-10-10T21:49:11.190Z,75.83
2022-10-10T21:51:41.646Z,75.88
2022-10-10T21:54:10.517Z,75.77
2022-10-10T21:56:39.669Z,75.47
2022-10-10T21:59:08.361Z,75.62
2022-10-10T22:01:38.117Z,75.76
2022-10-10T22:04:07.417Z,75.56
2022-10-10T22:06:35.889Z,75.83
2022-10-10T22:09:04.754Z,75.94
2022-10-10T22:11:34.231Z,75.29
2022-10-10T22:14:03.103Z,75.45
2022-10-10T22:16:31.913Z,75.74
2022-10-10T22:19:01.595Z,75.93
2022-10-10T22:21:32.465Z,76.15
2022-10-10T22:24:02.524Z,76.47
2022-10-10T22:26:31.683Z,76.56
2022-10-10T22:29:00.203Z,76.26
2022-10-10T22:31:29.297Z,75.94
2022-10-10T22:33:58.142Z,76.09
2022-10-10T22:36:28.006Z,76.33
2022-10-10T22:38:56.045Z,76.13
2022-10-10T22:41:24.152Z,76.38
2022-10-10T22:43:52.437Z,76.83
2022-10-10T22:46:20.469Z,77.36
2022-10-10T22:48:48.628Z,77.76
2022-10-10T22:51:18.798Z,77.14
2022-10-10T22:53:49.336Z,77.26
2022-10-10T22:56:20.819Z,76.72
2022-10-10T22:58:49.977Z,76.92
2022-10-10T23:01:22.318Z,76.51
2022-10-10T23:03:50.966Z,76.50
2022-10-10T23:06:19.048Z,76.79
2022-10-10T23:08:48.442Z,76.31
2022-10-10T23:11:16.869Z,76.36
2022-10-10T23:13:45.025Z,76.06
2022-10-10T23:16:13.157Z,75.92
2022-10-10T23:18:41.269Z,75.90
2022-10-10T23:21:09.375Z,75.73
2022-10-10T23:23:37.548Z,75.58
2022-10-10T23:26:09.039Z,75.69
2022-10-10T23:28:39.284Z,76.00
2022-10-10T23:31:09.855Z,75.83
2022-10-10T23:33:38.267Z,76.23
2022-10-10T23:36:09.390Z,76.45
2022-10-10T23:38:37.637Z,75.85
2022-10-10T23:41:07.579Z,75.45
2022-10-10T23:43:36.387Z,75.77
2022-10-10T23:46:05.107Z,75.57
2022-10-10T23:48:33.476Z,76.05
2022-10-10T23:51:01.557Z,75.54
2022-10-10T23:53:29.995Z,75.64
2022-10-10T23:55:58.055Z,75.37
2022-10-10T23:58:27.682Z,75.30
